sensor_id;sensor_type;location;lat;lon;timestamp;temperature;humidity
46378;DHT22;32083;47.360;9.650;2022-08-20T05:00:25;16.90;97.10
46378;DHT22;32083;47.360;9.650;2022-08-20T05:02:51;16.90;97.00
46378;DHT22;32083;47.360;9.650;2022-08-20T05:05:17;16.90;96.80
46378;DHT22;32083;47.360;9.650;2022-08-20T05:07:46;16.90;96.70
46378;DHT22;32083;47.360;9.650;2022-08-20T05:10:15;16.80;97.20
46378;DHT22;32083;47.360;9.650;2022-08-20T05:12:41;16.80;97.30
46378;DHT22;32083;47.360;9.650;2022-08-20T05:15:09;16.80;97.20
46378;DHT22;32083;47.360;9.650;2022-08-20T05:17:39;16.90;97.30
46378;DHT22;32083;47.360;9.650;2022-08-20T05:20:07;16.90;97.30
46378;DHT22;32083;47.360;9.650;2022-08-20T05:22:34;16.90;97.10
46378;DHT22;32083;47.360;9.650;2022-08-20T05:25:00;16.90;97.00
46378;DHT22;32083;47.360;9.650;2022-08-20T05:27:27;17.00;96.90
46378;DHT22;32083;47.360;9.650;2022-08-20T05:29:58;17.00;97.20
46378;DHT22;32083;47.360;9.650;2022-08-20T05:32:26;17.00;97.40
46378;DHT22;32083;47.360;9.650;2022-08-20T05:34:52;17.00;97.60
46378;DHT22;32083;47.360;9.650;2022-08-20T05:37:19;17.00;97.20
46378;DHT22;32083;47.360;9.650;2022-08-20T05:39:45;17.10;97.10
46378;DHT22;32083;47.360;9.650;2022-08-20T05:42:11;17.10;97.40
46378;DHT22;32083;47.360;9.650;2022-08-20T05:44:37;17.00;97.40
46378;DHT22;32083;47.360;9.650;2022-08-20T05:47:03;17.00;97.10
46378;DHT22;32083;47.360;9.650;2022-08-20T05:49:31;17.10;97.10
46378;DHT22;32083;47.360;9.650;2022-08-20T05:51:58;17.10;97.30
46378;DHT22;32083;47.360;9.650;2022-08-20T05:54:24;17.10;97.10
46378;DHT22;32083;47.360;9.650;2022-08-20T05:56:50;17.10;97.00
46378;DHT22;32083;47.360;9.650;2022-08-20T05:59:16;17.10;97.20
46378;DHT22;32083;47.360;9.650;2022-08-20T06:01:42;17.20;97.00
46378;DHT22;32083;47.360;9.650;2022-08-20T06:04:09;17.20;97.30
46378;DHT22;32083;47.360;9.650;2022-08-20T06:06:59;17.20;97.00
46378;DHT22;32083;47.360;9.650;2022-08-20T06:09:26;17.30;97.30
46378;DHT22;32083;47.360;9.650;2022-08-20T06:11:52;17.40;97.30
46378;DHT22;32083;47.360;9.650;2022-08-20T06:14:18;17.50;97.40
46378;DHT22;32083;47.360;9.650;2022-08-20T06:16:45;17.70;97.30
46378;DHT22;32083;47.360;9.650;2022-08-20T06:19:11;17.80;97.20
46378;DHT22;32083;47.360;9.650;2022-08-20T06:21:39;17.80;97.20
46378;DHT22;32083;47.360;9.650;2022-08-20T06:24:06;18.00;97.40
46378;DHT22;32083;47.360;9.650;2022-08-20T06:26:32;18.10;97.20
46378;DHT22;32083;47.360;9.650;2022-08-20T06:29:00;18.10;96.80
46378;DHT22;32083;47.360;9.650;2022-08-20T06:31:26;18.20;96.70
46378;DHT22;32083;47.360;9.650;2022-08-20T06:33:54;18.20;96.60
46378;DHT22;32083;47.360;9.650;2022-08-20T06:36:20;18.10;96.30
46378;DHT22;32083;47.360;9.650;2022-08-20T06:38:46;18.20;96.40
46378;DHT22;32083;47.360;9.650;2022-08-20T06:41:12;18.10;95.90
46378;DHT22;32083;47.360;9.650;2022-08-20T06:43:38;18.30;96.60
46378;DHT22;32083;47.360;9.650;2022-08-20T06:46:04;18.40;96.50
46378;DHT22;32083;47.360;9.650;2022-08-20T06:48:31;18.50;96.30
46378;DHT22;32083;47.360;9.650;2022-08-20T06:50:57;18.70;96.30
46378;DHT22;32083;47.360;9.650;2022-08-20T06:53:23;18.90;96.60
46378;DHT22;32083;47.360;9.650;2022-08-20T06:55:52;19.00;96.20
46378;DHT22;32083;47.360;9.650;2022-08-20T06:58:19;18.90;95.80
46378;DHT22;32083;47.360;9.650;2022-08-20T07:00:47;18.90;95.70
46378;DHT22;32083;47.360;9.650;2022-08-20T07:03:13;18.80;95.80
46378;DHT22;32083;47.360;9.650;2022-08-20T07:05:41;18.80;95.60
46378;DHT22;32083;47.360;9.650;2022-08-20T07:08:10;18.90;95.90
46378;DHT22;32083;47.360;9.650;2022-08-20T07:10:37;18.90;95.80
46378;DHT22;32083;47.360;9.650;2022-08-20T07:13:02;18.90;95.70
46378;DHT22;32083;47.360;9.650;2022-08-20T07:15:28;19.00;95.90
46378;DHT22;32083;47.360;9.650;2022-08-20T07:17:57;19.10;95.80
46378;DHT22;32083;47.360;9.650;2022-08-20T07:20:24;19.10;95.70
46378;DHT22;32083;47.360;9.650;2022-08-20T07:22:50;19.10;95.50
46378;DHT22;32083;47.360;9.650;2022-08-20T07:25:18;19.00;95.40
46378;DHT22;32083;47.360;9.650;2022-08-20T07:27:44;19.00;95.60
46378;DHT22;32083;47.360;9.650;2022-08-20T07:30:15;19.00;95.60
46378;DHT22;32083;47.360;9.650;2022-08-20T07:33:00;19.30;95.50
46378;DHT22;32083;47.360;9.650;2022-08-20T07:35:26;19.60;95.10
46378;DHT22;32083;47.360;9.650;2022-08-20T07:37:52;20.00;95.00
46378;DHT22;32083;47.360;9.650;2022-08-20T07:40:27;20.10;94.40
46378;DHT22;32083;47.360;9.650;2022-08-20T07:42:54;20.40;94.40
46378;DHT22;32083;47.360;9.650;2022-08-20T07:45:21;20.60;94.10
46378;DHT22;32083;47.360;9.650;2022-08-20T07:47:50;20.60;93.40
46378;DHT22;32083;47.360;9.650;2022-08-20T07:50:20;20.70;93.30
46378;DHT22;32083;47.360;9.650;2022-08-20T07:52:47;20.70;92.50
46378;DHT22;32083;47.360;9.650;2022-08-20T07:55:18;20.80;92.90
46378;DHT22;32083;47.360;9.650;2022-08-20T07:57:47;20.90;92.90
46378;DHT22;32083;47.360;9.650;2022-08-20T08:00:16;20.90;92.80
46378;DHT22;32083;47.360;9.650;2022-08-20T08:02:42;21.00;92.50
46378;DHT22;32083;47.360;9.650;2022-08-20T08:05:09;21.10;92.70
46378;DHT22;32083;47.360;9.650;2022-08-20T08:07:36;21.20;92.40
46378;DHT22;32083;47.360;9.650;2022-08-20T08:10:05;21.20;92.40
46378;DHT22;32083;47.360;9.650;2022-08-20T08:12:35;21.30;92.70
46378;DHT22;32083;47.360;9.650;2022-08-20T08:15:08;21.30;92.50
46378;DHT22;32083;47.360;9.650;2022-08-20T08:17:37;21.30;92.20
46378;DHT22;32083;47.360;9.650;2022-08-20T08:20:05;21.40;92.20
46378;DHT22;32083;47.360;9.650;2022-08-20T08:22:31;21.50;92.30
46378;DHT22;32083;47.360;9.650;2022-08-20T08:24:58;21.50;92.70
46378;DHT22;32083;47.360;9.650;2022-08-20T08:27:29;21.50;92.20
46378;DHT22;32083;47.360;9.650;2022-08-20T08:30:02;21.70;92.00
46378;DHT22;32083;47.360;9.650;2022-08-20T08:32:29;21.70;91.80
46378;DHT22;32083;47.360;9.650;2022-08-20T08:34:58;21.90;91.80
46378;DHT22;32083;47.360;9.650;2022-08-20T08:37:27;21.90;92.10
46378;DHT22;32083;47.360;9.650;2022-08-20T08:39:53;22.00;91.50
46378;DHT22;32083;47.360;9.650;2022-08-20T08:42:39;22.10;91.60
46378;DHT22;32083;47.360;9.650;2022-08-20T08:45:08;22.20;91.30
46378;DHT22;32083;47.360;9.650;2022-08-20T08:47:36;22.40;91.40
46378;DHT22;32083;47.360;9.650;2022-08-20T08:50:05;22.50;90.70
46378;DHT22;32083;47.360;9.650;2022-08-20T08:52:36;22.60;90.00
46378;DHT22;32083;47.360;9.650;2022-08-20T08:55:10;22.70;90.30
46378;DHT22;32083;47.360;9.650;2022-08-20T08:57:37;22.60;90.00
46378;DHT22;32083;47.360;9.650;2022-08-20T09:00:11;22.60;89.40
46378;DHT22;32083;47.360;9.650;2022-08-20T09:02:56;22.70;89.40
46378;DHT22;32083;47.360;9.650;2022-08-20T09:05:26;22.70;89.20
46378;DHT22;32083;47.360;9.650;2022-08-20T09:07:57;22.70;86.40
46378;DHT22;32083;47.360;9.650;2022-08-20T09:10:23;22.80;89.00
46378;DHT22;32083;47.360;9.650;2022-08-20T09:12:50;22.80;86.10
46378;DHT22;32083;47.360;9.650;2022-08-20T09:15:16;22.70;85.40
46378;DHT22;32083;47.360;9.650;2022-08-20T09:17:42;22.40;85.10
46378;DHT22;32083;47.360;9.650;2022-08-20T09:20:09;22.00;88.20
46378;DHT22;32083;47.360;9.650;2022-08-20T09:22:35;22.00;87.10
46378;DHT22;32083;47.360;9.650;2022-08-20T09:25:01;21.90;87.00
46378;DHT22;32083;47.360;9.650;2022-08-20T09:27:28;21.90;89.70
46378;DHT22;32083;47.360;9.650;2022-08-20T09:29:55;21.90;90.10
46378;DHT22;32083;47.360;9.650;2022-08-20T09:32:22;21.70;90.20
46378;DHT22;32083;47.360;9.650;2022-08-20T09:34:51;21.80;91.10
46378;DHT22;32083;47.360;9.650;2022-08-20T09:37:22;21.70;90.90
46378;DHT22;32083;47.360;9.650;2022-08-20T09:39:49;21.50;90.40
46378;DHT22;32083;47.360;9.650;2022-08-20T09:42:22;21.40;91.30
46378;DHT22;32083;47.360;9.650;2022-08-20T09:44:48;21.30;91.80
46378;DHT22;32083;47.360;9.650;2022-08-20T09:47:14;21.30;91.50
46378;DHT22;32083;47.360;9.650;2022-08-20T09:49:42;21.30;91.10
46378;DHT22;32083;47.360;9.650;2022-08-20T09:52:10;21.40;91.60
46378;DHT22;32083;47.360;9.650;2022-08-20T09:54:41;21.30;91.30
46378;DHT22;32083;47.360;9.650;2022-08-20T09:57:08;21.30;91.60
46378;DHT22;32083;47.360;9.650;2022-08-20T09:59:35;21.30;91.30
46378;DHT22;32083;47.360;9.650;2022-08-20T10:02:01;21.20;91.90
46378;DHT22;32083;47.360;9.650;2022-08-20T10:04:28;21.20;91.80
46378;DHT22;32083;47.360;9.650;2022-08-20T10:06:54;21.10;91.80
46378;DHT22;32083;47.360;9.650;2022-08-20T10:09:20;21.10;92.30
46378;DHT22;32083;47.360;9.650;2022-08-20T10:11:46;20.90;92.60
46378;DHT22;32083;47.360;9.650;2022-08-20T10:14:12;21.10;93.30
46378;DHT22;32083;47.360;9.650;2022-08-20T10:16:38;21.10;93.10
46378;DHT22;32083;47.360;9.650;2022-08-20T10:19:05;21.30;93.00
46378;DHT22;32083;47.360;9.650;2022-08-20T10:21:32;21.40;92.90
46378;DHT22;32083;47.360;9.650;2022-08-20T10:23:58;21.50;93.00
46378;DHT22;32083;47.360;9.650;2022-08-20T10:26:25;21.50;92.60
46378;DHT22;32083;47.360;9.650;2022-08-20T10:28:51;21.50;92.10
46378;DHT22;32083;47.360;9.650;2022-08-20T10:31:17;21.60;92.50
46378;DHT22;32083;47.360;9.650;2022-08-20T10:33:45;21.60;92.80
46378;DHT22;32083;47.360;9.650;2022-08-20T10:36:16;21.70;92.60
46378;DHT22;32083;47.360;9.650;2022-08-20T10:38:43;21.50;92.50
46378;DHT22;32083;47.360;9.650;2022-08-20T10:41:09;21.40;92.60
46378;DHT22;32083;47.360;9.650;2022-08-20T10:43:35;21.40;92.20
46378;DHT22;32083;47.360;9.650;2022-08-20T10:46:02;21.40;91.80
46378;DHT22;32083;47.360;9.650;2022-08-20T10:48:28;21.50;92.20
46378;DHT22;32083;47.360;9.650;2022-08-20T10:50:54;21.40;91.20
46378;DHT22;32083;47.360;9.650;2022-08-20T10:53:20;21.40;91.60
46378;DHT22;32083;47.360;9.650;2022-08-20T10:55:46;21.50;91.50
46378;DHT22;32083;47.360;9.650;2022-08-20T10:58:13;21.40;91.70
46378;DHT22;32083;47.360;9.650;2022-08-20T11:00:40;21.40;91.10
46378;DHT22;32083;47.360;9.650;2022-08-20T11:03:06;21.30;90.90
46378;DHT22;32083;47.360;9.650;2022-08-20T11:05:32;21.30;91.80
46378;DHT22;32083;47.360;9.650;2022-08-20T11:08:01;21.40;91.90
46378;DHT22;32083;47.360;9.650;2022-08-20T11:10:29;21.50;91.60
46378;DHT22;32083;47.360;9.650;2022-08-20T11:12:57;21.40;91.50
46378;DHT22;32083;47.360;9.650;2022-08-20T11:15:23;21.50;91.50
46378;DHT22;32083;47.360;9.650;2022-08-20T11:17:49;21.70;91.90
46378;DHT22;32083;47.360;9.650;2022-08-20T11:20:17;21.70;90.40
46378;DHT22;32083;47.360;9.650;2022-08-20T11:22:43;21.70;89.60
46378;DHT22;32083;47.360;9.650;2022-08-20T11:25:09;21.50;88.80
46378;DHT22;32083;47.360;9.650;2022-08-20T11:27:41;21.60;90.10
46378;DHT22;32083;47.360;9.650;2022-08-20T11:30:12;21.70;90.60
46378;DHT22;32083;47.360;9.650;2022-08-20T11:32:38;21.70;90.60
46378;DHT22;32083;47.360;9.650;2022-08-20T11:35:05;21.70;90.80
46378;DHT22;32083;47.360;9.650;2022-08-20T11:37:32;21.70;91.00
46378;DHT22;32083;47.360;9.650;2022-08-20T11:39:58;21.70;91.20
46378;DHT22;32083;47.360;9.650;2022-08-20T11:42:24;21.80;91.60
46378;DHT22;32083;47.360;9.650;2022-08-20T11:44:50;21.80;91.60
46378;DHT22;32083;47.360;9.650;2022-08-20T11:47:25;21.80;91.20
46378;DHT22;32083;47.360;9.650;2022-08-20T11:50:01;21.80;90.70
46378;DHT22;32083;47.360;9.650;2022-08-20T11:52:28;21.80;91.50
46378;DHT22;32083;47.360;9.650;2022-08-20T11:54:54;21.70;89.50
46378;DHT22;32083;47.360;9.650;2022-08-20T11:57:28;21.60;90.30
46378;DHT22;32083;47.360;9.650;2022-08-20T11:59:56;21.60;91.20
46378;DHT22;32083;47.360;9.650;2022-08-20T12:02:23;21.60;91.80
46378;DHT22;32083;47.360;9.650;2022-08-20T12:04:49;21.50;90.40
46378;DHT22;32083;47.360;9.650;2022-08-20T12:07:19;21.50;90.60
46378;DHT22;32083;47.360;9.650;2022-08-20T12:09:46;21.40;90.60
46378;DHT22;32083;47.360;9.650;2022-08-20T12:12:13;21.40;91.20
46378;DHT22;32083;47.360;9.650;2022-08-20T12:14:39;21.50;91.10
46378;DHT22;32083;47.360;9.650;2022-08-20T12:17:10;21.60;92.00
46378;DHT22;32083;47.360;9.650;2022-08-20T12:19:38;21.80;91.90
46378;DHT22;32083;47.360;9.650;2022-08-20T12:22:05;21.80;90.40
46378;DHT22;32083;47.360;9.650;2022-08-20T12:24:32;21.80;90.90
46378;DHT22;32083;47.360;9.650;2022-08-20T12:27:12;21.80;91.40
46378;DHT22;32083;47.360;9.650;2022-08-20T12:29:40;21.80;91.00
46378;DHT22;32083;47.360;9.650;2022-08-20T12:32:07;21.80;91.80
46378;DHT22;32083;47.360;9.650;2022-08-20T12:34:35;21.80;89.10
46378;DHT22;32083;47.360;9.650;2022-08-20T12:37:08;21.80;90.10
46378;DHT22;32083;47.360;9.650;2022-08-20T12:39:37;21.80;89.60
46378;DHT22;32083;47.360;9.650;2022-08-20T12:42:04;21.80;89.20
46378;DHT22;32083;47.360;9.650;2022-08-20T12:44:30;21.80;88.80
46378;DHT22;32083;47.360;9.650;2022-08-20T12:49:40;21.90;89.40
46378;DHT22;32083;47.360;9.650;2022-08-20T12:52:08;21.90;91.30
46378;DHT22;32083;47.360;9.650;2022-08-20T12:54:34;22.00;90.90
46378;DHT22;32083;47.360;9.650;2022-08-20T12:57:00;22.00;90.90
46378;DHT22;32083;47.360;9.650;2022-08-20T12:59:27;22.00;91.20
46378;DHT22;32083;47.360;9.650;2022-08-20T13:01:54;22.00;90.30
46378;DHT22;32083;47.360;9.650;2022-08-20T13:04:20;22.00;90.30
46378;DHT22;32083;47.360;9.650;2022-08-20T13:06:46;21.90;90.20
46378;DHT22;32083;47.360;9.650;2022-08-20T13:09:13;21.90;90.10
46378;DHT22;32083;47.360;9.650;2022-08-20T13:11:40;21.90;91.00
46378;DHT22;32083;47.360;9.650;2022-08-20T13:14:06;21.90;90.90
46378;DHT22;32083;47.360;9.650;2022-08-20T13:16:32;21.90;91.00
46378;DHT22;32083;47.360;9.650;2022-08-20T13:18:58;21.90;91.00
46378;DHT22;32083;47.360;9.650;2022-08-20T13:21:24;21.80;90.50
46378;DHT22;32083;47.360;9.650;2022-08-20T13:23:51;21.70;90.30
46378;DHT22;32083;47.360;9.650;2022-08-20T13:26:17;21.80;90.10
46378;DHT22;32083;47.360;9.650;2022-08-20T13:28:42;21.80;89.80
46378;DHT22;32083;47.360;9.650;2022-08-20T13:31:08;21.90;90.40
46378;DHT22;32083;47.360;9.650;2022-08-20T13:33:34;22.00;90.00
46378;DHT22;32083;47.360;9.650;2022-08-20T13:36:00;22.10;90.50
46378;DHT22;32083;47.360;9.650;2022-08-20T13:38:26;22.10;90.30
46378;DHT22;32083;47.360;9.650;2022-08-20T13:40:52;22.10;90.30
46378;DHT22;32083;47.360;9.650;2022-08-20T13:43:18;22.00;91.30
46378;DHT22;32083;47.360;9.650;2022-08-20T13:45:44;22.00;91.40
46378;DHT22;32083;47.360;9.650;2022-08-20T13:48:10;21.90;91.40
46378;DHT22;32083;47.360;9.650;2022-08-20T13:50:36;21.90;91.80
46378;DHT22;32083;47.360;9.650;2022-08-20T13:53:03;22.00;91.90
46378;DHT22;32083;47.360;9.650;2022-08-20T13:55:29;22.20;92.30
46378;DHT22;32083;47.360;9.650;2022-08-20T13:57:56;22.40;92.30
46378;DHT22;32083;47.360;9.650;2022-08-20T14:00:28;22.60;91.50
46378;DHT22;32083;47.360;9.650;2022-08-20T14:02:55;22.70;90.70
46378;DHT22;32083;47.360;9.650;2022-08-20T14:05:21;22.70;90.20
46378;DHT22;32083;47.360;9.650;2022-08-20T14:07:48;22.70;89.80
46378;DHT22;32083;47.360;9.650;2022-08-20T14:10:24;22.70;90.30
46378;DHT22;32083;47.360;9.650;2022-08-20T14:12:51;22.80;88.90
46378;DHT22;32083;47.360;9.650;2022-08-20T14:15:17;22.80;90.30
46378;DHT22;32083;47.360;9.650;2022-08-20T14:17:54;22.90;89.80
46378;DHT22;32083;47.360;9.650;2022-08-20T14:20:23;22.80;89.60
46378;DHT22;32083;47.360;9.650;2022-08-20T14:22:49;22.80;87.80
46378;DHT22;32083;47.360;9.650;2022-08-20T14:25:17;22.70;89.70
46378;DHT22;32083;47.360;9.650;2022-08-20T14:27:44;22.80;89.40
46378;DHT22;32083;47.360;9.650;2022-08-20T14:30:13;22.90;90.10
46378;DHT22;32083;47.360;9.650;2022-08-20T14:32:40;22.90;88.70
46378;DHT22;32083;47.360;9.650;2022-08-20T14:35:06;22.90;87.80
46378;DHT22;32083;47.360;9.650;2022-08-20T14:37:35;22.90;87.80
46378;DHT22;32083;47.360;9.650;2022-08-20T14:40:05;22.90;88.70
46378;DHT22;32083;47.360;9.650;2022-08-20T14:42:32;22.90;89.30
46378;DHT22;32083;47.360;9.650;2022-08-20T14:44:58;22.90;89.10
46378;DHT22;32083;47.360;9.650;2022-08-20T14:47:33;22.80;88.20
46378;DHT22;32083;47.360;9.650;2022-08-20T14:50:04;22.70;88.80
46378;DHT22;32083;47.360;9.650;2022-08-20T14:52:31;22.70;87.50
46378;DHT22;32083;47.360;9.650;2022-08-20T14:55:05;22.70;89.20
46378;DHT22;32083;47.360;9.650;2022-08-20T14:57:32;22.70;87.80
46378;DHT22;32083;47.360;9.650;2022-08-20T14:59:58;22.60;87.30
46378;DHT22;32083;47.360;9.650;2022-08-20T15:02:24;22.60;88.60
46378;DHT22;32083;47.360;9.650;2022-08-20T15:04:50;22.60;88.30
46378;DHT22;32083;47.360;9.650;2022-08-20T15:07:29;22.60;88.90
46378;DHT22;32083;47.360;9.650;2022-08-20T15:09:57;22.50;88.00
46378;DHT22;32083;47.360;9.650;2022-08-20T15:12:23;22.50;88.90
46378;DHT22;32083;47.360;9.650;2022-08-20T15:14:50;22.40;87.70
46378;DHT22;32083;47.360;9.650;2022-08-20T15:17:24;22.40;89.00
46378;DHT22;32083;47.360;9.650;2022-08-20T15:19:51;22.30;88.70
46378;DHT22;32083;47.360;9.650;2022-08-20T15:22:18;22.20;88.40
46378;DHT22;32083;47.360;9.650;2022-08-20T15:24:44;22.00;89.70
46378;DHT22;32083;47.360;9.650;2022-08-20T15:27:28;22.00;90.00
46378;DHT22;32083;47.360;9.650;2022-08-20T15:29:54;21.70;90.60
46378;DHT22;32083;47.360;9.650;2022-08-20T15:32:20;21.60;90.60
46378;DHT22;32083;47.360;9.650;2022-08-20T15:34:47;21.40;90.30
46378;DHT22;32083;47.360;9.650;2022-08-20T15:37:17;21.20;91.30
46378;DHT22;32083;47.360;9.650;2022-08-20T15:39:44;21.30;91.60
46378;DHT22;32083;47.360;9.650;2022-08-20T15:42:11;21.40;91.40
46378;DHT22;32083;47.360;9.650;2022-08-20T15:44:38;21.40;91.30
46378;DHT22;32083;47.360;9.650;2022-08-20T15:47:23;21.40;91.50
46378;DHT22;32083;47.360;9.650;2022-08-20T15:49:54;21.20;91.90
46378;DHT22;32083;47.360;9.650;2022-08-20T15:52:23;21.20;92.10
46378;DHT22;32083;47.360;9.650;2022-08-20T15:54:49;21.10;92.80
46378;DHT22;32083;47.360;9.650;2022-08-20T16:00:26;21.20;92.70
46378;DHT22;32083;47.360;9.650;2022-08-20T16:06:22;21.20;92.90
46378;DHT22;32083;47.360;9.650;2022-08-20T16:11:33;21.00;92.30
46378;DHT22;32083;47.360;9.650;2022-08-20T16:14:27;21.00;92.40
46378;DHT22;32083;47.360;9.650;2022-08-20T16:17:01;20.90;92.80
46378;DHT22;32083;47.360;9.650;2022-08-20T16:19:34;20.90;93.30
46378;DHT22;32083;47.360;9.650;2022-08-20T16:22:06;20.90;93.60
46378;DHT22;32083;47.360;9.650;2022-08-20T16:24:35;20.90;93.60
46378;DHT22;32083;47.360;9.650;2022-08-20T16:30:21;20.80;93.70
46378;DHT22;32083;47.360;9.650;2022-08-20T16:32:46;20.80;93.80
46378;DHT22;32083;47.360;9.650;2022-08-20T16:35:33;20.80;93.80
46378;DHT22;32083;47.360;9.650;2022-08-20T16:40:44;20.60;94.00
46378;DHT22;32083;47.360;9.650;2022-08-20T16:43:17;20.60;94.20
46378;DHT22;32083;47.360;9.650;2022-08-20T16:45:53;20.20;94.80
46378;DHT22;32083;47.360;9.650;2022-08-20T16:48:20;20.10;94.90
46378;DHT22;32083;47.360;9.650;2022-08-20T16:50:57;20.10;94.40
46378;DHT22;32083;47.360;9.650;2022-08-20T16:53:24;20.20;94.60
46378;DHT22;32083;47.360;9.650;2022-08-20T16:55:51;20.30;94.60
46378;DHT22;32083;47.360;9.650;2022-08-20T16:58:17;20.30;94.60
46378;DHT22;32083;47.360;9.650;2022-08-20T17:00:44;20.30;94.70
46378;DHT22;32083;47.360;9.650;2022-08-20T17:03:30;20.40;94.60
46378;DHT22;32083;47.360;9.650;2022-08-20T17:05:59;20.40;94.70
46378;DHT22;32083;47.360;9.650;2022-08-20T17:08:33;20.40;94.60
46378;DHT22;32083;47.360;9.650;2022-08-20T17:11:07;20.40;94.90
46378;DHT22;32083;47.360;9.650;2022-08-20T17:13:38;20.30;95.20
46378;DHT22;32083;47.360;9.650;2022-08-20T17:18:40;20.20;95.50
46378;DHT22;32083;47.360;9.650;2022-08-20T17:21:20;20.10;95.00
46378;DHT22;32083;47.360;9.650;2022-08-20T17:24:05;20.10;94.60
46378;DHT22;32083;47.360;9.650;2022-08-20T17:29:18;20.20;94.50
46378;DHT22;32083;47.360;9.650;2022-08-20T17:31:49;20.10;94.60
46378;DHT22;32083;47.360;9.650;2022-08-20T17:34:30;20.10;94.80
46378;DHT22;32083;47.360;9.650;2022-08-20T17:37:02;20.10;94.70
46378;DHT22;32083;47.360;9.650;2022-08-20T17:39:29;20.00;94.60
46378;DHT22;32083;47.360;9.650;2022-08-20T17:42:09;20.00;94.40
46378;DHT22;32083;47.360;9.650;2022-08-20T17:44:41;20.00;94.30
46378;DHT22;32083;47.360;9.650;2022-08-20T17:47:14;19.90;94.00
46378;DHT22;32083;47.360;9.650;2022-08-20T17:49:49;19.90;94.00
46378;DHT22;32083;47.360;9.650;2022-08-20T17:52:27;19.80;94.40
46378;DHT22;32083;47.360;9.650;2022-08-20T17:54:55;19.90;94.40
46378;DHT22;32083;47.360;9.650;2022-08-20T17:57:25;19.80;94.50
46378;DHT22;32083;47.360;9.650;2022-08-20T17:59:59;19.80;94.50
46378;DHT22;32083;47.360;9.650;2022-08-20T18:02:27;19.80;94.60
46378;DHT22;32083;47.360;9.650;2022-08-20T18:04:55;19.70;94.50
46378;DHT22;32083;47.360;9.650;2022-08-20T18:07:27;19.70;94.50
46378;DHT22;32083;47.360;9.650;2022-08-20T18:10:18;19.70;94.60
46378;DHT22;32083;47.360;9.650;2022-08-20T18:13:11;19.70;94.70
46378;DHT22;32083;47.360;9.650;2022-08-20T18:15:45;19.70;94.40
46378;DHT22;32083;47.360;9.650;2022-08-20T18:19:10;19.70;94.50
46378;DHT22;32083;47.360;9.650;2022-08-20T18:24:48;19.60;95.30
46378;DHT22;32083;47.360;9.650;2022-08-20T18:27:18;19.60;95.00
46378;DHT22;32083;47.360;9.650;2022-08-20T18:29:49;19.50;95.10
46378;DHT22;32083;47.360;9.650;2022-08-20T18:32:31;19.50;95.00
46378;DHT22;32083;47.360;9.650;2022-08-20T18:35:13;19.50;95.30
46378;DHT22;32083;47.360;9.650;2022-08-20T18:37:42;19.50;95.10
46378;DHT22;32083;47.360;9.650;2022-08-20T18:40:27;19.50;94.80
46378;DHT22;32083;47.360;9.650;2022-08-20T18:42:53;19.50;95.20
46378;DHT22;32083;47.360;9.650;2022-08-20T18:45:34;19.40;95.10
46378;DHT22;32083;47.360;9.650;2022-08-20T18:48:01;19.40;94.70
46378;DHT22;32083;47.360;9.650;2022-08-20T18:53:31;19.40;94.80
46378;DHT22;32083;47.360;9.650;2022-08-20T18:56:05;19.40;94.60
46378;DHT22;32083;47.360;9.650;2022-08-20T18:58:35;19.30;94.80
46378;DHT22;32083;47.360;9.650;2022-08-20T19:01:12;19.30;94.90
46378;DHT22;32083;47.360;9.650;2022-08-20T19:03:45;19.30;94.90
46378;DHT22;32083;47.360;9.650;2022-08-20T19:11:59;19.20;95.00
46378;DHT22;32083;47.360;9.650;2022-08-20T19:14:51;19.20;95.10
46378;DHT22;32083;47.360;9.650;2022-08-20T19:17:44;19.20;94.60
46378;DHT22;32083;47.360;9.650;2022-08-20T19:20:16;19.20;94.70
46378;DHT22;32083;47.360;9.650;2022-08-20T19:22:44;19.20;94.80
46378;DHT22;32083;47.360;9.650;2022-08-20T19:25:29;19.20;94.90
46378;DHT22;32083;47.360;9.650;2022-08-20T19:28:03;19.10;95.20
46378;DHT22;32083;47.360;9.650;2022-08-20T19:30:40;19.10;95.10
46378;DHT22;32083;47.360;9.650;2022-08-20T19:33:07;19.10;95.10
46378;DHT22;32083;47.360;9.650;2022-08-20T19:35:33;19.00;95.10
46378;DHT22;32083;47.360;9.650;2022-08-20T19:38:00;19.00;95.00
46378;DHT22;32083;47.360;9.650;2022-08-20T19:40:28;18.90;95.30
46378;DHT22;32083;47.360;9.650;2022-08-20T19:42:57;18.90;94.90
46378;DHT22;32083;47.360;9.650;2022-08-20T19:45:39;18.90;94.70
46378;DHT22;32083;47.360;9.650;2022-08-20T19:51:36;18.80;94.60
46378;DHT22;32083;47.360;9.650;2022-08-20T19:53:41;18.80;94.80
46378;DHT22;32083;47.360;9.650;2022-08-20T19:56:23;18.80;94.40
46378;DHT22;32083;47.360;9.650;2022-08-20T19:59:05;18.70;94.30
46378;DHT22;32083;47.360;9.650;2022-08-20T20:01:32;18.70;94.50
46378;DHT22;32083;47.360;9.650;2022-08-20T20:04:04;18.60;94.60
46378;DHT22;32083;47.360;9.650;2022-08-20T20:06:34;18.60;94.70
46378;DHT22;32083;47.360;9.650;2022-08-20T20:09:22;18.50;94.70
46378;DHT22;32083;47.360;9.650;2022-08-20T20:14:20;18.40;94.70
46378;DHT22;32083;47.360;9.650;2022-08-20T20:16:50;18.40;95.10
46378;DHT22;32083;47.360;9.650;2022-08-20T20:19:17;18.40;95.20
46378;DHT22;32083;47.360;9.650;2022-08-20T20:21:49;18.40;95.00
46378;DHT22;32083;47.360;9.650;2022-08-20T20:24:25;18.30;95.00
46378;DHT22;32083;47.360;9.650;2022-08-20T20:26:52;18.30;94.70
46378;DHT22;32083;47.360;9.650;2022-08-20T20:29:34;18.20;94.70
46378;DHT22;32083;47.360;9.650;2022-08-20T20:32:10;18.20;94.70
46378;DHT22;32083;47.360;9.650;2022-08-20T20:34:38;18.20;95.40
46378;DHT22;32083;47.360;9.650;2022-08-20T20:37:10;18.10;95.70
46378;DHT22;32083;47.360;9.650;2022-08-20T20:39:39;18.10;95.70
46378;DHT22;32083;47.360;9.650;2022-08-20T20:42:08;18.10;95.20
46378;DHT22;32083;47.360;9.650;2022-08-20T20:44:40;18.00;95.00
46378;DHT22;32083;47.360;9.650;2022-08-20T20:47:30;18.00;95.10
46378;DHT22;32083;47.360;9.650;2022-08-20T20:50:04;18.00;95.20
46378;DHT22;32083;47.360;9.650;2022-08-20T20:52:33;17.90;95.90
46378;DHT22;32083;47.360;9.650;2022-08-20T20:55:24;17.90;95.30
46378;DHT22;32083;47.360;9.650;2022-08-20T20:57:52;17.90;95.00
46378;DHT22;32083;47.360;9.650;2022-08-20T21:00:20;17.90;95.70
46378;DHT22;32083;47.360;9.650;2022-08-20T21:02:47;17.80;96.20
46378;DHT22;32083;47.360;9.650;2022-08-20T21:05:17;17.80;96.20
46378;DHT22;32083;47.360;9.650;2022-08-20T21:07:49;17.80;96.20
46378;DHT22;32083;47.360;9.650;2022-08-20T21:10:16;17.70;95.70
46378;DHT22;32083;47.360;9.650;2022-08-20T21:12:42;17.70;95.60
46378;DHT22;32083;47.360;9.650;2022-08-20T21:15:09;17.70;95.30
46378;DHT22;32083;47.360;9.650;2022-08-20T21:17:36;17.70;95.50
46378;DHT22;32083;47.360;9.650;2022-08-20T21:20:03;17.60;95.50
46378;DHT22;32083;47.360;9.650;2022-08-20T21:22:30;17.60;95.30
46378;DHT22;32083;47.360;9.650;2022-08-20T21:24:56;17.50;95.60